createdAt,value
2023-02-11T00:01:28.971Z,68.15
2023-02-11T00:03:31.662Z,68.32
2023-02-11T00:05:34.867Z,68.20
2023-02-11T00:07:37.848Z,67.85
2023-02-11T00:09:40.599Z,67.71
2023-02-11T00:11:43.108Z,67.78
2023-02-11T00:13:46.479Z,67.52
2023-02-11T00:15:49.607Z,67.83
2023-02-11T00:17:52.297Z,67.56
2023-02-11T00:19:55.105Z,67.69
2023-02-11T00:21:57.635Z,67.18
2023-02-11T00:24:02.807Z,67.45
2023-02-11T00:26:12.721Z,67.08
2023-02-11T00:28:15.902Z,67.39
2023-02-11T00:30:18.198Z,68.15
2023-02-11T00:32:20.647Z,68.20
2023-02-11T00:34:23.757Z,68.38
2023-02-11T00:36:28.531Z,68.27
2023-02-11T00:38:30.866Z,68.63
2023-02-11T00:40:33.297Z,68.15
2023-02-11T00:42:39.062Z,67.63
2023-02-11T00:44:41.885Z,68.16
2023-02-11T00:46:45.084Z,67.76
2023-02-11T00:48:47.826Z,67.79
2023-02-11T00:50:50.871Z,67.96
2023-02-11T00:52:53.378Z,68.05
2023-02-11T00:54:56.047Z,67.67
2023-02-11T00:56:58.657Z,67.43
2023-02-11T00:59:00.865Z,67.57
2023-02-11T01:01:03.414Z,67.20
2023-02-11T01:03:05.848Z,67.36
2023-02-11T01:05:08.688Z,67.80
2023-02-11T01:07:11.220Z,67.83
2023-02-11T01:09:13.745Z,67.67
2023-02-11T01:11:19.718Z,68.06
2023-02-11T01:13:23.241Z,68.28
2023-02-11T01:15:25.986Z,68.61
2023-02-11T01:17:28.387Z,68.29
2023-02-11T01:19:30.609Z,68.43
2023-02-11T01:21:33.041Z,68.78
2023-02-11T01:23:35.363Z,68.71
2023-02-11T01:25:37.804Z,68.75
2023-02-11T01:27:40.235Z,68.70
2023-02-11T01:29:42.673Z,68.13
2023-02-11T01:31:45.442Z,68.22
2023-02-11T01:33:49.471Z,68.32
2023-02-11T01:35:52.871Z,68.44
2023-02-11T01:37:55.510Z,68.93
2023-02-11T01:39:57.804Z,69.02
2023-02-11T01:42:01.705Z,68.51
2023-02-11T01:44:23.573Z,68.56
2023-02-11T01:46:36.886Z,68.82
2023-02-11T01:48:44.058Z,68.55
2023-02-11T01:50:49.728Z,68.41
2023-02-11T01:52:52.136Z,68.81
2023-02-11T01:55:18.094Z,68.66
2023-02-11T01:57:25.412Z,68.04
2023-02-11T01:59:30.823Z,68.24
2023-02-11T02:01:33.858Z,69.25
2023-02-11T02:03:42.954Z,68.79
2023-02-11T02:06:06.656Z,68.83
2023-02-11T02:08:17.718Z,68.71
2023-02-11T02:10:25.854Z,68.36
2023-02-11T02:12:28.305Z,68.73
2023-02-11T02:14:30.902Z,68.54
2023-02-11T02:16:37.460Z,68.50
2023-02-11T02:19:25.359Z,68.55
2023-02-11T02:21:55.501Z,68.11
2023-02-11T02:24:22.377Z,68.42
2023-02-11T02:26:54.237Z,68.22
2023-02-11T02:29:13.662Z,68.23
2023-02-11T02:31:24.824Z,68.10
2023-02-11T02:33:34.172Z,67.95
2023-02-11T02:35:48.964Z,68.20
2023-02-11T02:38:10.884Z,68.13
2023-02-11T02:40:20.414Z,67.83
2023-02-11T02:42:23.929Z,67.92
2023-02-11T02:44:26.522Z,67.56
2023-02-11T02:46:32.957Z,68.23
2023-02-11T02:48:36.441Z,68.34
2023-02-11T02:50:38.848Z,68.80
2023-02-11T02:52:56.061Z,68.56
2023-02-11T02:55:07.428Z,68.51
2023-02-11T02:57:27.913Z,68.39
2023-02-11T03:00:00.989Z,68.23
2023-02-11T03:02:14.548Z,68.21
2023-02-11T03:04:34.106Z,68.90
2023-02-11T03:07:00.816Z,68.47
2023-02-11T03:09:15.128Z,68.38
2023-02-11T03:11:20.049Z,67.73
2023-02-11T03:13:27.933Z,67.82
2023-02-11T03:15:35.650Z,67.77
2023-02-11T03:17:41.849Z,67.97
2023-02-11T03:19:47.449Z,67.94
2023-02-11T03:21:52.327Z,68.03
2023-02-11T03:23:56.890Z,67.90
2023-02-11T03:26:10.048Z,68.07
2023-02-11T03:28:15.311Z,68.08
2023-02-11T03:30:26.297Z,67.29
2023-02-11T03:32:31.785Z,67.23
2023-02-11T03:34:34.103Z,67.76
2023-02-11T03:36:47.798Z,67.89
2023-02-11T03:38:56.858Z,67.73
2023-02-11T03:41:02.437Z,67.70
2023-02-11T03:43:18.270Z,67.77
2023-02-11T03:45:23.343Z,67.58
2023-02-11T03:47:29.849Z,67.80
2023-02-11T03:49:33.638Z,67.63
2023-02-11T03:51:37.191Z,67.25
2023-02-11T03:53:43.573Z,67.52
2023-02-11T03:55:49.667Z,66.93
2023-02-11T03:57:53.033Z,67.16
2023-02-11T03:59:59.694Z,66.66
2023-02-11T04:02:02.361Z,66.71
2023-02-11T04:04:04.814Z,66.58
2023-02-11T04:06:08.359Z,66.79
2023-02-11T04:08:10.828Z,66.77
2023-02-11T04:10:13.266Z,66.71
2023-02-11T04:12:15.803Z,67.09
2023-02-11T04:14:18.128Z,67.11
2023-02-11T04:16:21.216Z,67.12
2023-02-11T04:18:23.484Z,67.38
2023-02-11T04:20:25.805Z,67.13
2023-02-11T04:22:28.115Z,67.25
2023-02-11T04:24:30.563Z,67.58
2023-02-11T04:26:33.784Z,67.01
2023-02-11T04:28:36.879Z,67.35
2023-02-11T04:30:39.237Z,67.29
2023-02-11T04:32:42.131Z,67.43
2023-02-11T04:34:44.414Z,67.31
2023-02-11T04:36:48.225Z,66.56
2023-02-11T04:38:50.504Z,66.49
2023-02-11T04:40:52.905Z,66.42
2023-02-11T04:42:55.245Z,66.14
2023-02-11T04:44:57.472Z,66.11
2023-02-11T04:46:59.723Z,66.09
2023-02-11T04:49:01.922Z,66.25
2023-02-11T04:51:04.295Z,65.93
2023-02-11T04:53:07.284Z,65.98
2023-02-11T04:55:09.812Z,65.84
2023-02-11T04:57:12.066Z,66.04
2023-02-11T04:59:14.454Z,66.26
2023-02-11T05:01:17.296Z,66.95
2023-02-11T05:03:19.628Z,66.63
2023-02-11T05:05:22.189Z,66.32
2023-02-11T05:07:24.709Z,66.25
2023-02-11T05:09:26.939Z,66.60
2023-02-11T05:11:29.242Z,66.76
2023-02-11T05:13:31.735Z,66.00
2023-02-11T05:15:33.945Z,66.55
2023-02-11T05:17:36.986Z,66.64
2023-02-11T05:19:39.471Z,66.16
2023-02-11T05:21:56.591Z,66.25
2023-02-11T05:24:02.929Z,66.28
2023-02-11T05:26:05.750Z,65.99
2023-02-11T05:28:08.103Z,66.00
2023-02-11T05:30:11.476Z,65.95
2023-02-11T05:32:13.778Z,66.41
2023-02-11T05:34:16.287Z,66.94
2023-02-11T05:36:18.882Z,66.53
2023-02-11T05:38:21.470Z,66.49
2023-02-11T05:40:24.643Z,66.92
2023-02-11T05:42:27.313Z,67.22
2023-02-11T05:44:29.740Z,66.71
2023-02-11T05:46:32.204Z,67.18
2023-02-11T05:48:35.032Z,66.93
2023-02-11T05:50:37.562Z,66.82
2023-02-11T05:52:40.015Z,66.81
2023-02-11T05:54:42.555Z,66.84
2023-02-11T05:56:45.152Z,66.98
2023-02-11T05:58:47.694Z,66.60
2023-02-11T06:00:49.877Z,66.53
2023-02-11T06:02:52.444Z,66.73
2023-02-11T06:04:54.672Z,66.29
2023-02-11T06:06:57.203Z,66.62
2023-02-11T06:08:59.587Z,66.23
2023-02-11T06:11:02.229Z,65.73
2023-02-11T06:13:04.894Z,66.22
2023-02-11T06:15:07.963Z,66.42
2023-02-11T06:17:10.154Z,66.55
2023-02-11T06:19:13.348Z,66.76
2023-02-11T06:21:15.879Z,67.09
2023-02-11T06:23:18.767Z,67.17
2023-02-11T06:25:21.199Z,66.40
2023-02-11T06:27:23.861Z,66.02
2023-02-11T06:29:26.472Z,66.25
2023-02-11T06:31:29.349Z,66.12
2023-02-11T06:33:33.188Z,66.66
2023-02-11T06:35:38.213Z,66.30
2023-02-11T06:37:41.425Z,66.03
2023-02-11T06:39:45.455Z,66.23
2023-02-11T06:41:47.819Z,66.15
2023-02-11T06:43:50.707Z,66.26
2023-02-11T06:45:56.466Z,66.50
2023-02-11T06:47:58.904Z,65.61
2023-02-11T06:50:01.099Z,66.08
2023-02-11T06:52:03.925Z,65.56
2023-02-11T06:54:07.094Z,65.98
2023-02-11T06:56:13.454Z,66.66
2023-02-11T06:58:16.110Z,66.76
2023-02-11T07:00:18.683Z,66.94
2023-02-11T07:02:21.352Z,66.68
2023-02-11T07:04:23.824Z,66.75
2023-02-11T07:06:28.266Z,66.64
2023-02-11T07:08:30.830Z,66.71
2023-02-11T07:10:34.394Z,66.14
2023-02-11T07:12:37.038Z,66.83
2023-02-11T07:14:40.041Z,66.75
2023-02-11T07:16:42.386Z,67.56
2023-02-11T07:18:45.845Z,67.90
2023-02-11T07:20:48.637Z,67.67
2023-02-11T07:22:51.210Z,68.00
2023-02-11T07:24:53.585Z,67.97
2023-02-11T07:26:56.257Z,67.80
2023-02-11T07:28:58.779Z,67.02
2023-02-11T07:31:07.890Z,67.43
2023-02-11T07:33:10.891Z,67.73
2023-02-11T07:35:13.565Z,67.30
2023-02-11T07:37:15.888Z,66.86
2023-02-11T07:39:18.495Z,66.51
2023-02-11T07:41:23.299Z,66.02
2023-02-11T07:43:25.902Z,65.57
2023-02-11T07:45:28.110Z,65.78
2023-02-11T07:47:30.853Z,64.75
2023-02-11T07:49:33.271Z,64.90
2023-02-11T07:51:35.560Z,64.76
2023-02-11T07:53:39.023Z,64.55
2023-02-11T07:55:42.800Z,64.01
2023-02-11T07:57:45.638Z,63.90
2023-02-11T07:59:48.031Z,63.61
2023-02-11T08:01:51.770Z,64.06
2023-02-11T08:03:58.917Z,63.37
2023-02-11T08:06:12.243Z,63.20
2023-02-11T08:08:14.439Z,62.68
2023-02-11T08:10:16.854Z,62.92
2023-02-11T08:12:19.340Z,62.46
2023-02-11T08:14:21.554Z,62.34
2023-02-11T08:16:27.779Z,61.85
2023-02-11T08:18:31.278Z,62.38
2023-02-11T08:20:34.107Z,62.33
2023-02-11T08:22:36.316Z,62.50
2023-02-11T08:24:38.826Z,61.96
2023-02-11T08:26:41.334Z,61.31
2023-02-11T08:28:45.951Z,61.33
2023-02-11T08:30:49.214Z,61.53
2023-02-11T08:32:52.696Z,61.22
2023-02-11T08:34:55.182Z,61.48
2023-02-11T08:36:58.247Z,61.20
2023-02-11T08:39:20.648Z,61.56
2023-02-11T08:41:23.275Z,61.73
2023-02-11T08:43:25.937Z,61.47
2023-02-11T08:45:28.919Z,60.81
2023-02-11T08:47:32.199Z,60.60
2023-02-11T08:49:34.895Z,61.57
2023-02-11T08:51:37.283Z,60.86
2023-02-11T08:53:40.117Z,60.36
2023-02-11T08:55:49.356Z,60.45
2023-02-11T08:57:51.921Z,60.84
2023-02-11T08:59:54.191Z,60.90
2023-02-11T09:01:56.779Z,59.50
2023-02-11T09:03:59.953Z,59.27
2023-02-11T09:06:05.968Z,59.75
2023-02-11T09:08:08.324Z,59.80
2023-02-11T09:10:11.769Z,60.09
2023-02-11T09:12:14.408Z,59.86
2023-02-11T09:14:22.088Z,59.83
2023-02-11T09:16:28.712Z,59.71
2023-02-11T09:18:31.757Z,60.16
2023-02-11T09:20:34.704Z,60.12
2023-02-11T09:22:37.090Z,59.51
2023-02-11T09:24:39.532Z,59.71
2023-02-11T09:26:43.743Z,59.65
2023-02-11T09:28:47.076Z,58.78
2023-02-11T09:30:50.073Z,59.30
2023-02-11T09:32:52.648Z,58.62
2023-02-11T09:34:55.024Z,59.43
2023-02-11T09:36:57.830Z,59.25
2023-02-11T09:39:02.502Z,58.96
2023-02-11T09:41:08.030Z,59.10
2023-02-11T09:43:33.974Z,59.40
2023-02-11T09:45:36.498Z,58.81
2023-02-11T09:48:04.419Z,59.28
2023-02-11T09:50:36.224Z,59.83
2023-02-11T09:53:05.465Z,59.27
2023-02-11T09:55:25.345Z,58.19
2023-02-11T09:57:36.608Z,57.80
2023-02-11T09:59:40.637Z,58.18
2023-02-11T10:01:51.302Z,58.10
2023-02-11T10:04:31.161Z,58.30
2023-02-11T10:06:52.693Z,57.81
2023-02-11T10:09:16.704Z,57.83
2023-02-11T10:11:32.108Z,57.24
2023-02-11T10:13:52.972Z,56.97
2023-02-11T10:16:22.546Z,56.46
2023-02-11T10:18:46.083Z,56.54
2023-02-11T10:21:20.987Z,56.13
2023-02-11T10:23:27.184Z,56.45
2023-02-11T10:25:45.232Z,56.45
2023-02-11T10:27:49.134Z,56.78
2023-02-11T10:30:02.999Z,55.42
2023-02-11T10:32:25.371Z,56.18
2023-02-11T10:34:27.623Z,55.17
2023-02-11T10:36:34.260Z,54.83
2023-02-11T10:38:37.250Z,55.34
2023-02-11T10:40:39.707Z,55.85
2023-02-11T10:42:47.409Z,55.25
2023-02-11T10:45:01.339Z,54.95
2023-02-11T10:47:12.508Z,55.02
2023-02-11T10:49:40.036Z,55.04
2023-02-11T10:51:42.583Z,54.79
2023-02-11T10:53:46.677Z,55.26
2023-02-11T10:55:54.874Z,55.23
2023-02-11T10:58:01.387Z,54.72
2023-02-11T11:00:18.922Z,55.55
2023-02-11T11:02:34.631Z,54.93
2023-02-11T11:04:42.986Z,55.34
2023-02-11T11:06:45.372Z,55.30
2023-02-11T11:08:50.653Z,55.41
2023-02-11T11:11:14.584Z,54.14
2023-02-11T11:13:32.756Z,54.63
2023-02-11T11:15:34.914Z,54.43
2023-02-11T11:17:38.656Z,53.85
2023-02-11T11:19:41.063Z,54.62
2023-02-11T11:21:52.429Z,54.21
2023-02-11T11:24:04.338Z,53.89
2023-02-11T11:26:13.056Z,54.59
2023-02-11T11:28:25.631Z,53.84
2023-02-11T11:30:35.181Z,54.82
2023-02-11T11:32:38.174Z,54.07
2023-02-11T11:34:49.799Z,54.53
2023-02-11T11:36:56.646Z,54.80
2023-02-11T11:39:03.669Z,55.05
2023-02-11T11:41:17.808Z,55.17
2023-02-11T11:43:23.350Z,55.48
2023-02-11T11:45:27.451Z,55.54
2023-02-11T11:47:41.252Z,55.37
2023-02-11T11:49:52.973Z,55.30
2023-02-11T11:52:27.243Z,55.74
2023-02-11T11:54:31.669Z,55.71
2023-02-11T11:56:38.414Z,56.02
2023-02-11T11:58:41.133Z,55.67
2023-02-11T12:00:56.251Z,56.21
2023-02-11T12:03:26.180Z,55.84
2023-02-11T12:05:38.624Z,56.15
2023-02-11T12:07:56.243Z,55.51
2023-02-11T12:10:36.113Z,56.22
2023-02-11T12:12:41.679Z,56.06
2023-02-11T12:15:08.011Z,55.40
2023-02-11T12:17:20.130Z,56.23
2023-02-11T12:19:57.727Z,55.95
2023-02-11T12:22:19.498Z,55.89
2023-02-11T12:24:24.988Z,55.89
2023-02-11T12:26:38.811Z,56.04
2023-02-11T12:29:20.677Z,56.13
2023-02-11T12:31:33.747Z,56.35
2023-02-11T12:33:54.741Z,56.62
2023-02-11T12:36:06.250Z,56.29
2023-02-11T12:38:19.220Z,56.29
2023-02-11T12:40:35.156Z,56.84
2023-02-11T12:43:15.413Z,56.25
2023-02-11T12:46:05.214Z,56.40
2023-02-11T12:48:38.324Z,56.36
2023-02-11T12:51:04.125Z,56.27
2023-02-11T12:53:28.293Z,56.04
2023-02-11T12:55:40.248Z,56.57
2023-02-11T12:57:46.792Z,57.01
2023-02-11T12:59:59.746Z,56.69
2023-02-11T13:02:12.789Z,56.69
2023-02-11T13:04:35.364Z,57.25
2023-02-11T13:06:42.587Z,56.41
2023-02-11T13:08:49.256Z,57.06
2023-02-11T13:10:55.822Z,56.75
2023-02-11T13:13:17.318Z,56.81
2023-02-11T13:15:20.383Z,56.97
2023-02-11T13:17:57.952Z,56.98
2023-02-11T13:20:15.288Z,56.92
2023-02-11T13:22:27.594Z,56.95
2023-02-11T13:24:53.568Z,57.25
2023-02-11T13:27:01.993Z,56.64
2023-02-11T13:29:19.766Z,57.27
2023-02-11T13:31:27.026Z,56.80
2023-02-11T13:33:37.988Z,56.88
2023-02-11T13:35:45.512Z,56.90
2023-02-11T13:37:48.393Z,56.77
2023-02-11T13:40:27.339Z,57.46
2023-02-11T13:42:31.549Z,57.56
2023-02-11T13:44:35.210Z,57.25
2023-02-11T13:47:00.016Z,57.22
2023-02-11T13:49:02.571Z,57.27
2023-02-11T13:51:11.014Z,57.14
2023-02-11T13:53:15.987Z,57.42
2023-02-11T13:55:24.543Z,57.93
2023-02-11T13:57:36.183Z,57.24
2023-02-11T13:59:38.829Z,57.90
2023-02-11T14:02:19.807Z,57.94
2023-02-11T14:04:44.139Z,57.67
2023-02-11T14:07:46.458Z,57.73
2023-02-11T14:09:53.770Z,57.79
2023-02-11T14:12:33.996Z,57.87
2023-02-11T14:15:03.285Z,58.40
2023-02-11T14:17:09.507Z,58.50
2023-02-11T14:19:11.796Z,58.08
2023-02-11T14:21:30.877Z,58.00
2023-02-11T14:23:33.389Z,58.18
2023-02-11T14:25:39.237Z,58.15
2023-02-11T14:27:44.432Z,58.08
2023-02-11T14:30:01.963Z,57.79
2023-02-11T14:32:10.154Z,58.31
2023-02-11T14:34:40.772Z,57.97
2023-02-11T14:37:09.548Z,58.39
2023-02-11T14:39:40.713Z,57.77
2023-02-11T14:41:46.649Z,58.29
2023-02-11T14:44:15.222Z,58.33
2023-02-11T14:46:20.203Z,58.47
2023-02-11T14:48:31.427Z,58.20
2023-02-11T14:50:51.517Z,58.05
2023-02-11T14:52:55.464Z,58.60
2023-02-11T14:55:20.912Z,59.67
2023-02-11T14:57:23.947Z,59.54
2023-02-11T14:59:26.798Z,59.43
2023-02-11T15:01:34.630Z,59.89
2023-02-11T15:03:40.234Z,60.30
2023-02-11T15:05:43.491Z,60.83
2023-02-11T15:07:52.441Z,60.23
2023-02-11T15:09:54.898Z,60.51
2023-02-11T15:11:58.891Z,60.71
2023-02-11T15:14:11.440Z,60.37
2023-02-11T15:16:18.835Z,60.52
2023-02-11T15:18:25.208Z,60.47
2023-02-11T15:20:32.410Z,60.14
2023-02-11T15:22:37.278Z,60.24
2023-02-11T15:24:41.269Z,60.18
2023-02-11T15:26:43.909Z,61.04
2023-02-11T15:28:52.905Z,60.58
2023-02-11T15:31:04.661Z,60.40
2023-02-11T15:33:21.417Z,61.03
2023-02-11T15:35:24.870Z,60.69
2023-02-11T15:37:33.117Z,60.75
2023-02-11T15:39:44.107Z,61.18
2023-02-11T15:41:46.519Z,61.81
2023-02-11T15:43:54.759Z,61.48
2023-02-11T15:46:02.468Z,61.13
2023-02-11T15:48:19.123Z,61.96
2023-02-11T15:50:25.186Z,62.06
2023-02-11T15:52:28.891Z,61.62
2023-02-11T15:54:34.897Z,62.48
2023-02-11T15:56:43.662Z,62.04
2023-02-11T15:58:49.770Z,63.06
2023-02-11T16:01:00.118Z,62.44
2023-02-11T16:03:03.445Z,62.65
2023-02-11T16:05:09.388Z,63.32
2023-02-11T16:07:43.532Z,63.12
2023-02-11T16:09:46.343Z,63.33
2023-02-11T16:11:48.609Z,63.53
2023-02-11T16:13:51.014Z,63.38
2023-02-11T16:16:02.693Z,63.86
2023-02-11T16:18:16.155Z,63.61
2023-02-11T16:20:21.658Z,64.04
2023-02-11T16:22:35.786Z,64.02
2023-02-11T16:24:39.744Z,64.16
2023-02-11T16:26:46.866Z,64.46
2023-02-11T16:28:49.684Z,65.16
2023-02-11T16:30:55.881Z,64.77
2023-02-11T16:32:58.315Z,65.25
2023-02-11T16:35:02.526Z,64.59
2023-02-11T16:37:06.186Z,65.63
2023-02-11T16:39:09.507Z,65.40
2023-02-11T16:41:13.054Z,65.52
2023-02-11T16:43:20.071Z,65.67
2023-02-11T16:45:22.497Z,65.93
2023-02-11T16:47:27.929Z,65.75
2023-02-11T16:49:40.887Z,65.61
2023-02-11T16:51:44.817Z,65.59
2023-02-11T16:53:47.193Z,65.96
2023-02-11T16:55:50.130Z,65.67
2023-02-11T16:57:52.993Z,66.32
2023-02-11T16:59:55.357Z,65.70
2023-02-11T17:01:58.467Z,66.28
2023-02-11T17:04:01.389Z,65.37
2023-02-11T17:06:06.216Z,65.81
2023-02-11T17:08:09.947Z,66.17
2023-02-11T17:10:21.686Z,65.78
2023-02-11T17:12:28.182Z,66.29
2023-02-11T17:14:30.634Z,66.28
2023-02-11T17:16:33.363Z,66.50
2023-02-11T17:18:37.678Z,66.50
2023-02-11T17:20:40.827Z,67.31
2023-02-11T17:22:43.957Z,66.97
2023-02-11T17:24:46.509Z,67.31
2023-02-11T17:26:50.156Z,67.07
2023-02-11T17:28:53.712Z,67.71
2023-02-11T17:30:56.278Z,67.52
2023-02-11T17:32:58.887Z,67.26
2023-02-11T17:35:01.690Z,67.20
2023-02-11T17:37:09.421Z,68.58
2023-02-11T17:39:12.206Z,67.92
2023-02-11T17:41:14.919Z,67.79
2023-02-11T17:43:17.197Z,67.86
2023-02-11T17:45:22.172Z,68.53
2023-02-11T17:47:25.681Z,68.67
2023-02-11T17:49:28.472Z,68.62
2023-02-11T17:51:36.817Z,68.51
2023-02-11T17:53:39.387Z,68.43
2023-02-11T17:55:42.201Z,68.46
2023-02-11T17:57:44.670Z,68.81
2023-02-11T17:59:47.461Z,68.76
2023-02-11T18:01:49.937Z,69.19
2023-02-11T18:03:52.774Z,69.24
2023-02-11T18:06:00.877Z,69.29
2023-02-11T18:08:06.595Z,69.74
2023-02-11T18:10:10.033Z,69.01
2023-02-11T18:12:12.707Z,69.84
2023-02-11T18:14:15.037Z,69.89
2023-02-11T18:16:17.949Z,68.96
2023-02-11T18:18:20.390Z,69.94
2023-02-11T18:20:22.747Z,69.82
2023-02-11T18:22:26.294Z,70.00
2023-02-11T18:24:28.503Z,69.50
2023-02-11T18:26:31.280Z,69.31
2023-02-11T18:28:34.491Z,69.46
2023-02-11T18:30:36.919Z,69.48
2023-02-11T18:32:39.330Z,69.10
2023-02-11T18:34:42.268Z,69.90
2023-02-11T18:36:48.893Z,69.80
2023-02-11T18:38:53.005Z,69.71
2023-02-11T18:40:58.791Z,69.31
2023-02-11T18:43:01.511Z,69.76
2023-02-11T18:45:05.792Z,69.38
2023-02-11T18:47:08.378Z,68.97
2023-02-11T18:49:13.551Z,69.52
2023-02-11T18:51:20.817Z,69.80
2023-02-11T18:53:23.166Z,69.96
2023-02-11T18:55:26.489Z,70.31
2023-02-11T18:57:29.244Z,69.72
2023-02-11T18:59:31.715Z,69.87
2023-02-11T19:01:34.710Z,69.96
2023-02-11T19:03:38.432Z,69.75
2023-02-11T19:05:49.608Z,69.92
2023-02-11T19:07:52.149Z,70.55
2023-02-11T19:09:54.768Z,70.27
2023-02-11T19:11:58.635Z,69.69
2023-02-11T19:14:02.757Z,70.00
2023-02-11T19:16:11.507Z,69.74
2023-02-11T19:18:16.319Z,69.67
2023-02-11T19:20:19.618Z,69.85
2023-02-11T19:22:22.327Z,70.43
2023-02-11T19:24:26.650Z,69.88
2023-02-11T19:26:30.348Z,69.73
2023-02-11T19:28:34.720Z,69.67
2023-02-11T19:30:37.546Z,70.64
2023-02-11T19:32:40.054Z,70.74
2023-02-11T19:34:42.725Z,70.50
2023-02-11T19:36:45.311Z,70.72
2023-02-11T19:38:47.954Z,69.89
2023-02-11T19:40:56.918Z,70.18
2023-02-11T19:42:59.547Z,70.09
2023-02-11T19:45:02.723Z,69.94
2023-02-11T19:47:07.221Z,70.01
2023-02-11T19:49:14.708Z,70.05
2023-02-11T19:51:18.617Z,70.24
2023-02-11T19:53:22.065Z,70.51
2023-02-11T19:55:24.688Z,70.10
2023-02-11T19:57:27.261Z,69.97
2023-02-11T19:59:29.704Z,69.62
2023-02-11T20:01:32.176Z,70.44
2023-02-11T20:03:35.701Z,70.65
2023-02-11T20:05:40.484Z,70.67
2023-02-11T20:07:42.815Z,70.79
2023-02-11T20:09:45.607Z,69.84
2023-02-11T20:11:48.022Z,70.22
2023-02-11T20:13:50.486Z,70.25
2023-02-11T20:15:53.335Z,70.91
2023-02-11T20:17:56.331Z,70.52
2023-02-11T20:19:58.963Z,71.08
2023-02-11T20:22:01.816Z,70.08
2023-02-11T20:24:04.680Z,70.04
2023-02-11T20:26:13.724Z,70.44
2023-02-11T20:28:16.632Z,70.66
2023-02-11T20:30:19.306Z,70.07
2023-02-11T20:32:21.889Z,70.33
2023-02-11T20:34:25.639Z,70.10
2023-02-11T20:36:32.496Z,70.34
2023-02-11T20:38:35.425Z,69.97
2023-02-11T20:40:38.772Z,69.93
2023-02-11T20:42:41.537Z,70.72
2023-02-11T20:44:44.529Z,70.66
2023-02-11T20:46:47.624Z,69.87
2023-02-11T20:48:52.312Z,70.92
2023-02-11T20:50:55.037Z,70.28
2023-02-11T20:52:57.749Z,69.92
2023-02-11T20:55:01.914Z,70.80
2023-02-11T20:57:04.673Z,70.82
2023-02-11T20:59:08.088Z,70.20
2023-02-11T21:01:31.963Z,70.70
2023-02-11T21:03:34.616Z,70.35
2023-02-11T21:05:37.120Z,70.69
2023-02-11T21:07:40.198Z,70.83
2023-02-11T21:09:42.746Z,70.57
2023-02-11T21:11:45.708Z,71.40
2023-02-11T21:13:49.016Z,71.31
2023-02-11T21:15:56.846Z,71.13
2023-02-11T21:18:00.335Z,70.99
2023-02-11T21:20:02.799Z,70.54
2023-02-11T21:22:05.445Z,71.42
2023-02-11T21:24:09.917Z,70.90
2023-02-11T21:26:13.021Z,71.31
2023-02-11T21:28:15.765Z,71.59
2023-02-11T21:30:18.888Z,71.44
2023-02-11T21:32:21.209Z,71.03
2023-02-11T21:34:23.935Z,71.14
2023-02-11T21:36:27.897Z,70.99
2023-02-11T21:38:31.414Z,71.33
2023-02-11T21:40:33.660Z,71.42
2023-02-11T21:42:36.560Z,71.78
2023-02-11T21:44:39.377Z,71.09
2023-02-11T21:46:42.683Z,71.35
2023-02-11T21:48:45.773Z,71.25
2023-02-11T21:50:48.195Z,71.46
2023-02-11T21:52:50.981Z,70.96
2023-02-11T21:54:53.461Z,71.27
2023-02-11T21:56:56.242Z,71.22
2023-02-11T21:58:59.652Z,70.64
2023-02-11T22:01:02.162Z,71.31
2023-02-11T22:03:05.055Z,71.04
2023-02-11T22:05:07.477Z,71.59
2023-02-11T22:07:09.996Z,71.41
2023-02-11T22:09:12.702Z,70.56
2023-02-11T22:11:15.554Z,70.68
2023-02-11T22:13:18.078Z,71.10
2023-02-11T22:15:20.894Z,71.24
2023-02-11T22:17:24.109Z,71.07
2023-02-11T22:19:26.759Z,70.74
2023-02-11T22:21:29.176Z,71.29
2023-02-11T22:23:32.119Z,71.61
2023-02-11T22:25:37.046Z,71.17
2023-02-11T22:27:39.934Z,71.52
2023-02-11T22:29:43.387Z,71.16
2023-02-11T22:31:46.180Z,71.12
2023-02-11T22:33:50.041Z,71.02
2023-02-11T22:36:00.499Z,71.17
2023-02-11T22:38:03.074Z,71.54
2023-02-11T22:40:06.521Z,70.88
2023-02-11T22:42:09.443Z,71.08
2023-02-11T22:44:13.014Z,71.25
2023-02-11T22:46:18.574Z,71.00
2023-02-11T22:48:23.110Z,71.04
2023-02-11T22:50:26.436Z,71.36
2023-02-11T22:52:29.145Z,71.18
2023-02-11T22:54:31.703Z,71.08
2023-02-11T22:56:35.483Z,70.62
2023-02-11T22:58:38.115Z,70.72
2023-02-11T23:00:42.087Z,71.12
2023-02-11T23:02:44.687Z,70.67
2023-02-11T23:04:49.852Z,70.78
2023-02-11T23:06:52.776Z,70.85
2023-02-11T23:08:55.749Z,70.06
2023-02-11T23:11:23.364Z,70.79
2023-02-11T23:13:26.135Z,70.52
2023-02-11T23:15:29.157Z,70.31
2023-02-11T23:17:32.015Z,71.00
2023-02-11T23:19:34.378Z,70.79
2023-02-11T23:21:39.767Z,70.99
2023-02-11T23:23:43.434Z,70.85
2023-02-11T23:25:47.940Z,70.77
2023-02-11T23:27:50.597Z,70.72
2023-02-11T23:29:56.876Z,70.74
2023-02-11T23:31:59.404Z,71.00
2023-02-11T23:34:08.454Z,70.61
2023-02-11T23:36:11.650Z,70.98
2023-02-11T23:38:13.884Z,70.88
2023-02-11T23:40:16.417Z,71.10
2023-02-11T23:42:18.872Z,70.60
2023-02-11T23:44:21.973Z,71.86
2023-02-11T23:46:26.171Z,71.65
2023-02-11T23:48:29.056Z,71.26
2023-02-11T23:50:33.083Z,71.20
2023-02-11T23:52:35.679Z,71.17
2023-02-11T23:54:38.030Z,71.50
2023-02-11T23:56:42.664Z,71.41
2023-02-11T23:58:47.195Z,71.60
